sensor_id;sensor_type;location;lat;lon;timestamp;pressure;altitude;pressure_sealevel;temperature;humidity
12215;BME280;6170;42.206;24.142;2023-02-14T00:00:26;100291.16;;;3.40;60.02
12215;BME280;6170;42.206;24.142;2023-02-14T00:02:52;100287.16;;;3.57;59.47
12215;BME280;6170;42.206;24.142;2023-02-14T00:05:21;100297.53;;;3.49;59.77
12215;BME280;6170;42.206;24.142;2023-02-14T00:07:48;100286.31;;;3.34;60.16
12215;BME280;6170;42.206;24.142;2023-02-14T00:10:15;100283.66;;;3.34;60.56
12215;BME280;6170;42.206;24.142;2023-02-14T00:12:41;100280.66;;;3.50;60.55
12215;BME280;6170;42.206;24.142;2023-02-14T00:15:10;100280.31;;;3.43;60.06
12215;BME280;6170;42.206;24.142;2023-02-14T00:17:48;100271.16;;;3.36;59.83
12215;BME280;6170;42.206;24.142;2023-02-14T00:20:15;100265.50;;;3.19;60.05
12215;BME280;6170;42.206;24.142;2023-02-14T00:22:42;100266.09;;;3.33;59.50
12215;BME280;6170;42.206;24.142;2023-02-14T00:25:09;100265.59;;;3.17;58.96
12215;BME280;6170;42.206;24.142;2023-02-14T00:27:36;100289.31;;;3.41;58.48
12215;BME280;6170;42.206;24.142;2023-02-14T00:30:03;100298.50;;;3.48;57.89
12215;BME280;6170;42.206;24.142;2023-02-14T00:32:32;100301.63;;;3.53;57.83
12215;BME280;6170;42.206;24.142;2023-02-14T00:34:59;100289.22;;;3.31;58.91
12215;BME280;6170;42.206;24.142;2023-02-14T00:37:26;100283.66;;;3.45;58.89
12215;BME280;6170;42.206;24.142;2023-02-14T00:39:53;100282.94;;;3.43;59.46
12215;BME280;6170;42.206;24.142;2023-02-14T00:42:19;100279.81;;;3.60;58.66
12215;BME280;6170;42.206;24.142;2023-02-14T00:44:46;100271.97;;;3.70;58.44
12215;BME280;6170;42.206;24.142;2023-02-14T00:47:13;100266.16;;;3.76;58.41
12215;BME280;6170;42.206;24.142;2023-02-14T00:49:41;100271.25;;;3.68;59.16
12215;BME280;6170;42.206;24.142;2023-02-14T00:52:08;100261.22;;;3.83;58.70
12215;BME280;6170;42.206;24.142;2023-02-14T00:54:34;100281.81;;;3.90;58.77
12215;BME280;6170;42.206;24.142;2023-02-14T00:57:01;100261.34;;;3.92;58.19
12215;BME280;6170;42.206;24.142;2023-02-14T00:59:28;100278.09;;;3.93;58.25
12215;BME280;6170;42.206;24.142;2023-02-14T01:01:55;100258.84;;;3.80;58.85
12215;BME280;6170;42.206;24.142;2023-02-14T01:04:21;100253.19;;;3.62;59.02
12215;BME280;6170;42.206;24.142;2023-02-14T01:06:50;100270.75;;;3.63;58.87
12215;BME280;6170;42.206;24.142;2023-02-14T01:09:16;100269.56;;;3.78;58.36
12215;BME280;6170;42.206;24.142;2023-02-14T01:11:43;100264.72;;;3.72;59.09
12215;BME280;6170;42.206;24.142;2023-02-14T01:14:10;100245.13;;;3.52;59.73
12215;BME280;6170;42.206;24.142;2023-02-14T01:16:37;100254.75;;;3.65;59.58
12215;BME280;6170;42.206;24.142;2023-02-14T01:19:04;100265.72;;;3.71;59.42
12215;BME280;6170;42.206;24.142;2023-02-14T01:21:33;100264.28;;;3.67;58.97
12215;BME280;6170;42.206;24.142;2023-02-14T01:24:03;100254.84;;;3.74;59.02
12215;BME280;6170;42.206;24.142;2023-02-14T01:26:30;100258.22;;;3.76;58.73
12215;BME280;6170;42.206;24.142;2023-02-14T01:28:57;100264.88;;;3.71;58.79
12215;BME280;6170;42.206;24.142;2023-02-14T01:31:26;100262.59;;;3.66;59.05
12215;BME280;6170;42.206;24.142;2023-02-14T01:33:54;100250.50;;;3.84;58.50
12215;BME280;6170;42.206;24.142;2023-02-14T01:36:22;100242.31;;;3.76;58.51
12215;BME280;6170;42.206;24.142;2023-02-14T01:38:50;100250.16;;;3.78;58.86
12215;BME280;6170;42.206;24.142;2023-02-14T01:41:19;100238.22;;;3.72;58.75
12215;BME280;6170;42.206;24.142;2023-02-14T01:43:49;100251.00;;;3.78;58.71
12215;BME280;6170;42.206;24.142;2023-02-14T01:46:16;100247.16;;;3.71;58.92
12215;BME280;6170;42.206;24.142;2023-02-14T01:48:43;100238.03;;;3.53;58.75
12215;BME280;6170;42.206;24.142;2023-02-14T01:51:10;100244.38;;;3.73;59.06
12215;BME280;6170;42.206;24.142;2023-02-14T01:53:38;100250.06;;;3.57;59.56
12215;BME280;6170;42.206;24.142;2023-02-14T01:56:08;100235.22;;;3.66;59.11
12215;BME280;6170;42.206;24.142;2023-02-14T01:58:39;100234.53;;;3.41;59.54
12215;BME280;6170;42.206;24.142;2023-02-14T02:01:10;100235.84;;;3.47;59.12
12215;BME280;6170;42.206;24.142;2023-02-14T02:03:40;100232.00;;;3.51;58.95
12215;BME280;6170;42.206;24.142;2023-02-14T02:06:12;100220.69;;;3.38;59.54
12215;BME280;6170;42.206;24.142;2023-02-14T02:08:51;100214.06;;;3.21;60.36
12215;BME280;6170;42.206;24.142;2023-02-14T02:11:21;100207.69;;;3.35;60.12
12215;BME280;6170;42.206;24.142;2023-02-14T02:13:49;100249.19;;;3.79;59.91
12215;BME280;6170;42.206;24.142;2023-02-14T02:16:26;100179.41;;;3.35;59.99
12215;BME280;6170;42.206;24.142;2023-02-14T02:19:13;100182.72;;;3.59;59.31
12215;BME280;6170;42.206;24.142;2023-02-14T02:24:48;100186.94;;;3.62;59.93
12215;BME280;6170;42.206;24.142;2023-02-14T02:27:36;100193.66;;;3.66;59.42
12215;BME280;6170;42.206;24.142;2023-02-14T02:30:35;100191.88;;;3.67;59.67
12215;BME280;6170;42.206;24.142;2023-02-14T02:33:40;100199.88;;;3.87;59.14
12215;BME280;6170;42.206;24.142;2023-02-14T02:36:21;100204.22;;;3.88;58.73
12215;BME280;6170;42.206;24.142;2023-02-14T02:39:02;100199.38;;;3.93;58.38
12215;BME280;6170;42.206;24.142;2023-02-14T02:41:37;100203.69;;;3.94;58.30
12215;BME280;6170;42.206;24.142;2023-02-14T02:44:14;100206.28;;;3.85;58.95
12215;BME280;6170;42.206;24.142;2023-02-14T02:46:48;100243.25;;;3.97;59.06
12215;BME280;6170;42.206;24.142;2023-02-14T02:49:29;100208.84;;;3.75;59.07
12215;BME280;6170;42.206;24.142;2023-02-14T02:52:20;100200.88;;;3.64;59.37
12215;BME280;6170;42.206;24.142;2023-02-14T02:55:10;100187.03;;;3.60;60.43
12215;BME280;6170;42.206;24.142;2023-02-14T02:57:40;100191.94;;;3.76;60.36
12215;BME280;6170;42.206;24.142;2023-02-14T03:00:08;100183.06;;;3.66;60.77
12215;BME280;6170;42.206;24.142;2023-02-14T03:02:39;100186.41;;;3.79;60.40
12215;BME280;6170;42.206;24.142;2023-02-14T03:05:21;100177.03;;;3.75;60.48
12215;BME280;6170;42.206;24.142;2023-02-14T03:07:50;100214.94;;;3.87;60.83
12215;BME280;6170;42.206;24.142;2023-02-14T03:10:19;100172.56;;;3.65;61.11
12215;BME280;6170;42.206;24.142;2023-02-14T03:13:24;100158.84;;;3.59;60.69
12215;BME280;6170;42.206;24.142;2023-02-14T03:19:03;100176.53;;;3.70;60.24
12215;BME280;6170;42.206;24.142;2023-02-14T03:21:41;100177.75;;;3.66;60.70
12215;BME280;6170;42.206;24.142;2023-02-14T03:24:13;100181.06;;;3.47;60.96
12215;BME280;6170;42.206;24.142;2023-02-14T03:26:47;100187.63;;;3.75;60.51
12215;BME280;6170;42.206;24.142;2023-02-14T03:29:20;100157.78;;;3.62;61.13
12215;BME280;6170;42.206;24.142;2023-02-14T03:31:59;100174.31;;;3.86;61.47
12215;BME280;6170;42.206;24.142;2023-02-14T03:34:31;100137.56;;;3.82;61.87
12215;BME280;6170;42.206;24.142;2023-02-14T03:37:05;100155.81;;;3.64;61.96
12215;BME280;6170;42.206;24.142;2023-02-14T03:39:39;100151.00;;;3.69;61.88
12215;BME280;6170;42.206;24.142;2023-02-14T03:42:13;100151.59;;;3.73;62.15
12215;BME280;6170;42.206;24.142;2023-02-14T03:44:42;100153.81;;;3.56;62.65
12215;BME280;6170;42.206;24.142;2023-02-14T03:47:11;100146.66;;;3.68;62.00
12215;BME280;6170;42.206;24.142;2023-02-14T03:49:43;100171.00;;;3.73;62.38
12215;BME280;6170;42.206;24.142;2023-02-14T03:52:11;100157.56;;;3.54;62.65
12215;BME280;6170;42.206;24.142;2023-02-14T03:54:41;100153.81;;;3.56;62.77
12215;BME280;6170;42.206;24.142;2023-02-14T03:57:13;100171.88;;;3.63;62.65
12215;BME280;6170;42.206;24.142;2023-02-14T03:59:42;100221.66;;;4.02;62.15
12215;BME280;6170;42.206;24.142;2023-02-14T04:02:12;100175.97;;;3.67;62.10
12215;BME280;6170;42.206;24.142;2023-02-14T04:04:43;100133.78;;;3.63;62.25
12215;BME280;6170;42.206;24.142;2023-02-14T04:07:12;100129.84;;;3.47;62.53
12215;BME280;6170;42.206;24.142;2023-02-14T04:09:41;100133.56;;;3.55;61.96
12215;BME280;6170;42.206;24.142;2023-02-14T04:12:08;100139.00;;;3.54;61.96
12215;BME280;6170;42.206;24.142;2023-02-14T04:14:35;100128.53;;;3.52;61.93
12215;BME280;6170;42.206;24.142;2023-02-14T04:17:03;100135.41;;;3.44;61.92
12215;BME280;6170;42.206;24.142;2023-02-14T04:19:47;100120.47;;;3.54;61.63
12215;BME280;6170;42.206;24.142;2023-02-14T04:22:15;100118.47;;;3.35;61.36
12215;BME280;6170;42.206;24.142;2023-02-14T04:24:43;100129.31;;;3.64;60.83
12215;BME280;6170;42.206;24.142;2023-02-14T04:27:10;100112.00;;;3.60;60.85
12215;BME280;6170;42.206;24.142;2023-02-14T04:29:37;100179.25;;;3.91;60.54
12215;BME280;6170;42.206;24.142;2023-02-14T04:32:05;100130.22;;;3.53;60.72
12215;BME280;6170;42.206;24.142;2023-02-14T04:34:32;100110.25;;;3.38;60.87
12215;BME280;6170;42.206;24.142;2023-02-14T04:36:59;100122.53;;;3.39;61.47
12215;BME280;6170;42.206;24.142;2023-02-14T04:39:26;100106.06;;;3.36;61.46
12215;BME280;6170;42.206;24.142;2023-02-14T04:41:54;100101.72;;;3.35;61.35
12215;BME280;6170;42.206;24.142;2023-02-14T04:44:21;100107.59;;;3.49;61.74
12215;BME280;6170;42.206;24.142;2023-02-14T04:46:48;100106.69;;;3.60;61.46
12215;BME280;6170;42.206;24.142;2023-02-14T04:49:16;100109.03;;;3.42;62.13
12215;BME280;6170;42.206;24.142;2023-02-14T04:51:43;100104.94;;;3.49;61.59
12215;BME280;6170;42.206;24.142;2023-02-14T04:54:10;100112.50;;;3.54;61.56
12215;BME280;6170;42.206;24.142;2023-02-14T04:56:37;100092.19;;;3.43;61.25
12215;BME280;6170;42.206;24.142;2023-02-14T04:59:05;100156.97;;;3.82;61.33
12215;BME280;6170;42.206;24.142;2023-02-14T05:01:32;100097.19;;;3.57;61.05
12215;BME280;6170;42.206;24.142;2023-02-14T05:03:59;100094.44;;;3.48;61.01
12215;BME280;6170;42.206;24.142;2023-02-14T05:06:25;100088.78;;;3.52;60.66
12215;BME280;6170;42.206;24.142;2023-02-14T05:08:53;100080.81;;;3.52;60.17
12215;BME280;6170;42.206;24.142;2023-02-14T05:11:20;100080.09;;;3.50;60.57
12215;BME280;6170;42.206;24.142;2023-02-14T05:13:47;100079.25;;;3.50;60.09
12215;BME280;6170;42.206;24.142;2023-02-14T05:16:15;100079.69;;;3.34;60.82
12215;BME280;6170;42.206;24.142;2023-02-14T05:18:42;100080.84;;;3.41;60.69
12215;BME280;6170;42.206;24.142;2023-02-14T05:21:08;100081.47;;;3.34;61.05
12215;BME280;6170;42.206;24.142;2023-02-14T05:23:35;100088.56;;;3.44;61.02
12215;BME280;6170;42.206;24.142;2023-02-14T05:26:02;100073.94;;;3.61;60.43
12215;BME280;6170;42.206;24.142;2023-02-14T05:28:29;100074.78;;;3.61;60.90
12215;BME280;6170;42.206;24.142;2023-02-14T05:30:56;100079.63;;;3.45;60.99
12215;BME280;6170;42.206;24.142;2023-02-14T05:33:25;100082.06;;;3.48;60.67
12215;BME280;6170;42.206;24.142;2023-02-14T05:35:51;100088.94;;;3.40;61.18
12215;BME280;6170;42.206;24.142;2023-02-14T05:38:18;100076.03;;;3.46;61.17
12215;BME280;6170;42.206;24.142;2023-02-14T05:40:45;100078.28;;;3.62;61.10
12215;BME280;6170;42.206;24.142;2023-02-14T05:43:12;100073.88;;;3.72;60.49
12215;BME280;6170;42.206;24.142;2023-02-14T05:45:39;100077.50;;;3.71;60.50
12215;BME280;6170;42.206;24.142;2023-02-14T05:48:06;100082.56;;;3.95;60.04
12215;BME280;6170;42.206;24.142;2023-02-14T05:50:34;100077.19;;;3.85;59.89
12215;BME280;6170;42.206;24.142;2023-02-14T05:53:01;100084.13;;;3.97;59.79
12215;BME280;6170;42.206;24.142;2023-02-14T05:55:29;100078.38;;;3.92;60.09
12215;BME280;6170;42.206;24.142;2023-02-14T05:57:55;100078.59;;;4.31;59.26
12215;BME280;6170;42.206;24.142;2023-02-14T06:00:23;100048.22;;;4.44;58.59
12215;BME280;6170;42.206;24.142;2023-02-14T06:02:50;100081.53;;;5.38;57.33
12215;BME280;6170;42.206;24.142;2023-02-14T06:05:17;100076.94;;;6.07;55.21
12215;BME280;6170;42.206;24.142;2023-02-14T06:07:47;100048.56;;;6.45;54.02
12215;BME280;6170;42.206;24.142;2023-02-14T06:10:16;100072.34;;;6.93;53.38
12215;BME280;6170;42.206;24.142;2023-02-14T06:12:42;100064.38;;;7.38;52.54
12215;BME280;6170;42.206;24.142;2023-02-14T06:15:10;100073.59;;;7.43;51.85
12215;BME280;6170;42.206;24.142;2023-02-14T06:17:37;100057.88;;;7.93;50.66
12215;BME280;6170;42.206;24.142;2023-02-14T06:20:05;100070.63;;;8.43;50.09
12215;BME280;6170;42.206;24.142;2023-02-14T06:22:33;100068.72;;;8.87;49.63
12215;BME280;6170;42.206;24.142;2023-02-14T06:25:02;100083.50;;;9.07;48.81
12215;BME280;6170;42.206;24.142;2023-02-14T06:27:30;100082.75;;;8.89;49.24
12215;BME280;6170;42.206;24.142;2023-02-14T06:29:57;100074.75;;;8.63;49.68
12215;BME280;6170;42.206;24.142;2023-02-14T06:32:24;100087.09;;;8.90;49.70
12215;BME280;6170;42.206;24.142;2023-02-14T06:34:51;100113.75;;;9.50;49.09
12215;BME280;6170;42.206;24.142;2023-02-14T06:37:17;100066.13;;;9.93;47.94
12215;BME280;6170;42.206;24.142;2023-02-14T06:39:45;100075.16;;;9.68;46.87
12215;BME280;6170;42.206;24.142;2023-02-14T06:42:13;100128.06;;;10.15;47.28
12215;BME280;6170;42.206;24.142;2023-02-14T06:44:40;100094.44;;;10.28;47.24
12215;BME280;6170;42.206;24.142;2023-02-14T06:47:07;100103.06;;;9.74;47.99
12215;BME280;6170;42.206;24.142;2023-02-14T06:49:33;100094.13;;;10.15;47.50
12215;BME280;6170;42.206;24.142;2023-02-14T06:52:00;100099.16;;;10.26;47.34
12215;BME280;6170;42.206;24.142;2023-02-14T06:54:27;100100.66;;;10.21;46.43
12215;BME280;6170;42.206;24.142;2023-02-14T06:56:54;100093.16;;;10.96;45.22
12215;BME280;6170;42.206;24.142;2023-02-14T06:59:22;100135.94;;;11.28;45.43
12215;BME280;6170;42.206;24.142;2023-02-14T07:01:49;100088.25;;;10.28;47.24
12215;BME280;6170;42.206;24.142;2023-02-14T07:04:16;100093.34;;;9.57;48.14
12215;BME280;6170;42.206;24.142;2023-02-14T07:06:45;100074.38;;;9.26;48.47
12215;BME280;6170;42.206;24.142;2023-02-14T07:09:12;100088.53;;;9.60;48.26
12215;BME280;6170;42.206;24.142;2023-02-14T07:11:42;100076.78;;;9.61;48.38
12215;BME280;6170;42.206;24.142;2023-02-14T07:14:09;100088.25;;;10.20;47.88
12215;BME280;6170;42.206;24.142;2023-02-14T07:16:37;100083.44;;;9.41;48.38
12215;BME280;6170;42.206;24.142;2023-02-14T07:19:04;100067.75;;;9.46;48.00
12215;BME280;6170;42.206;24.142;2023-02-14T07:21:31;100063.91;;;9.65;48.80
12215;BME280;6170;42.206;24.142;2023-02-14T07:23:58;100073.09;;;8.96;50.34
12215;BME280;6170;42.206;24.142;2023-02-14T07:26:25;100106.03;;;9.05;49.98
12215;BME280;6170;42.206;24.142;2023-02-14T07:28:52;100053.22;;;9.65;49.19
12215;BME280;6170;42.206;24.142;2023-02-14T07:31:19;100045.63;;;9.20;50.06
12215;BME280;6170;42.206;24.142;2023-02-14T07:33:49;100086.38;;;9.88;49.64
12215;BME280;6170;42.206;24.142;2023-02-14T07:36:16;100034.09;;;9.27;49.95
12215;BME280;6170;42.206;24.142;2023-02-14T07:38:42;100049.81;;;9.30;49.49
12215;BME280;6170;42.206;24.142;2023-02-14T07:41:09;100034.88;;;9.12;49.98
12215;BME280;6170;42.206;24.142;2023-02-14T07:43:36;100044.09;;;8.75;50.63
12215;BME280;6170;42.206;24.142;2023-02-14T07:46:04;100033.53;;;8.66;50.92
12215;BME280;6170;42.206;24.142;2023-02-14T07:48:31;100043.47;;;9.31;49.86
12215;BME280;6170;42.206;24.142;2023-02-14T07:50:59;100046.47;;;9.20;50.02
12215;BME280;6170;42.206;24.142;2023-02-14T07:53:26;100052.53;;;8.88;50.38
12215;BME280;6170;42.206;24.142;2023-02-14T07:55:53;100040.97;;;8.80;50.39
12215;BME280;6170;42.206;24.142;2023-02-14T07:58:20;100046.13;;;9.31;49.31
12215;BME280;6170;42.206;24.142;2023-02-14T08:00:47;100044.41;;;9.06;50.38
12215;BME280;6170;42.206;24.142;2023-02-14T08:03:15;100046.47;;;9.20;49.63
12215;BME280;6170;42.206;24.142;2023-02-14T08:05:42;100044.31;;;9.40;49.15
12215;BME280;6170;42.206;24.142;2023-02-14T08:08:11;100050.66;;;9.31;49.77
12215;BME280;6170;42.206;24.142;2023-02-14T08:10:38;100046.47;;;9.28;49.74
12215;BME280;6170;42.206;24.142;2023-02-14T08:13:04;100041.84;;;9.63;49.57
12215;BME280;6170;42.206;24.142;2023-02-14T08:15:33;100109.25;;;9.58;50.29
12215;BME280;6170;42.206;24.142;2023-02-14T08:18:18;100054.88;;;9.58;49.28
12215;BME280;6170;42.206;24.142;2023-02-14T08:20:46;100048.88;;;9.80;49.53
12215;BME280;6170;42.206;24.142;2023-02-14T08:23:16;100058.59;;;9.97;49.20
12215;BME280;6170;42.206;24.142;2023-02-14T08:25:43;100053.75;;;9.84;48.79
12215;BME280;6170;42.206;24.142;2023-02-14T08:28:10;100060.25;;;10.14;48.69
12215;BME280;6170;42.206;24.142;2023-02-14T08:30:38;100066.94;;;10.51;48.19
12215;BME280;6170;42.206;24.142;2023-02-14T08:33:05;100061.03;;;10.71;47.81
12215;BME280;6170;42.206;24.142;2023-02-14T08:35:32;100089.69;;;10.63;48.55
12215;BME280;6170;42.206;24.142;2023-02-14T08:37:59;100056.97;;;10.92;48.40
12215;BME280;6170;42.206;24.142;2023-02-14T08:40:27;100040.69;;;11.32;47.13
12215;BME280;6170;42.206;24.142;2023-02-14T08:42:54;100051.63;;;11.22;47.86
12215;BME280;6170;42.206;24.142;2023-02-14T08:45:21;100047.78;;;11.17;47.45
12215;BME280;6170;42.206;24.142;2023-02-14T08:47:48;100057.00;;;11.22;47.24
12215;BME280;6170;42.206;24.142;2023-02-14T08:50:16;100087.88;;;11.49;47.65
12215;BME280;6170;42.206;24.142;2023-02-14T08:52:44;100053.50;;;10.67;48.15
12215;BME280;6170;42.206;24.142;2023-02-14T08:55:11;100061.38;;;11.15;47.90
12215;BME280;6170;42.206;24.142;2023-02-14T08:57:40;100057.00;;;11.22;47.30
12215;BME280;6170;42.206;24.142;2023-02-14T09:00:08;100037.03;;;11.79;47.59
12215;BME280;6170;42.206;24.142;2023-02-14T09:02:35;100052.97;;;12.03;47.32
12215;BME280;6170;42.206;24.142;2023-02-14T09:05:02;100047.41;;;11.28;46.78
12215;BME280;6170;42.206;24.142;2023-02-14T09:07:29;100053.94;;;11.56;47.32
12215;BME280;6170;42.206;24.142;2023-02-14T09:09:56;100035.63;;;10.98;47.85
12215;BME280;6170;42.206;24.142;2023-02-14T09:12:23;100042.75;;;10.83;48.75
12215;BME280;6170;42.206;24.142;2023-02-14T09:14:51;100089.91;;;11.70;48.25
12215;BME280;6170;42.206;24.142;2023-02-14T09:17:18;100043.09;;;11.19;48.92
12215;BME280;6170;42.206;24.142;2023-02-14T09:19:45;100017.88;;;11.51;48.10
12215;BME280;6170;42.206;24.142;2023-02-14T09:22:12;100034.53;;;11.69;47.62
12215;BME280;6170;42.206;24.142;2023-02-14T09:24:39;100034.91;;;11.66;48.76
12215;BME280;6170;42.206;24.142;2023-02-14T09:27:06;100035.94;;;12.10;47.82
12215;BME280;6170;42.206;24.142;2023-02-14T09:29:34;100038.91;;;11.70;49.16
12215;BME280;6170;42.206;24.142;2023-02-14T09:32:03;100022.09;;;11.22;49.59
12215;BME280;6170;42.206;24.142;2023-02-14T09:34:32;100024.38;;;11.87;49.16
12215;BME280;6170;42.206;24.142;2023-02-14T09:36:59;100026.34;;;11.93;48.45
12215;BME280;6170;42.206;24.142;2023-02-14T09:39:26;100023.38;;;11.35;49.17
12215;BME280;6170;42.206;24.142;2023-02-14T09:42:20;100024.06;;;11.82;48.54
12215;BME280;6170;42.206;24.142;2023-02-14T09:44:50;100018.69;;;12.05;48.99
12215;BME280;6170;42.206;24.142;2023-02-14T09:47:23;100016.19;;;12.03;48.16
12215;BME280;6170;42.206;24.142;2023-02-14T09:49:54;100020.31;;;12.29;47.55
12215;BME280;6170;42.206;24.142;2023-02-14T09:52:25;100007.69;;;11.69;49.08
12215;BME280;6170;42.206;24.142;2023-02-14T09:54:57;99999.84;;;11.67;48.61
12215;BME280;6170;42.206;24.142;2023-02-14T09:57:32;99996.63;;;11.95;48.71
12215;BME280;6170;42.206;24.142;2023-02-14T10:00:12;100027.66;;;11.97;48.71
12215;BME280;6170;42.206;24.142;2023-02-14T10:02:52;99985.34;;;11.54;49.02
12215;BME280;6170;42.206;24.142;2023-02-14T10:05:25;99980.69;;;11.93;48.97
12215;BME280;6170;42.206;24.142;2023-02-14T10:08:00;99981.59;;;11.63;49.42
12215;BME280;6170;42.206;24.142;2023-02-14T10:10:36;99980.66;;;11.25;50.02
12215;BME280;6170;42.206;24.142;2023-02-14T10:13:09;99978.72;;;11.42;49.97
12215;BME280;6170;42.206;24.142;2023-02-14T10:15:41;99965.72;;;11.76;49.35
12215;BME280;6170;42.206;24.142;2023-02-14T10:18:19;99964.09;;;11.44;49.23
12215;BME280;6170;42.206;24.142;2023-02-14T10:20:50;99965.81;;;11.83;48.11
12215;BME280;6170;42.206;24.142;2023-02-14T10:23:28;99963.78;;;12.37;47.26
12215;BME280;6170;42.206;24.142;2023-02-14T10:25:59;99999.44;;;12.75;47.92
12215;BME280;6170;42.206;24.142;2023-02-14T10:28:31;99948.84;;;12.64;46.79
12215;BME280;6170;42.206;24.142;2023-02-14T10:31:10;99944.56;;;12.69;47.22
12215;BME280;6170;42.206;24.142;2023-02-14T10:33:41;99960.16;;;12.44;48.40
12215;BME280;6170;42.206;24.142;2023-02-14T10:36:15;99958.78;;;11.82;48.77
12215;BME280;6170;42.206;24.142;2023-02-14T10:38:49;99984.13;;;11.56;48.73
12215;BME280;6170;42.206;24.142;2023-02-14T10:41:25;99955.34;;;11.50;49.97
12215;BME280;6170;42.206;24.142;2023-02-14T10:44:03;99948.84;;;11.45;49.15
12215;BME280;6170;42.206;24.142;2023-02-14T10:46:41;99963.94;;;11.46;49.71
12215;BME280;6170;42.206;24.142;2023-02-14T10:49:31;99936.78;;;11.41;49.32
12215;BME280;6170;42.206;24.142;2023-02-14T10:52:09;99947.56;;;11.78;48.65
12215;BME280;6170;42.206;24.142;2023-02-14T10:54:42;99950.44;;;11.54;50.33
12215;BME280;6170;42.206;24.142;2023-02-14T10:57:13;99953.66;;;11.95;48.52
12215;BME280;6170;42.206;24.142;2023-02-14T10:59:47;99935.78;;;11.42;49.55
12215;BME280;6170;42.206;24.142;2023-02-14T11:02:21;99939.16;;;11.58;49.72
12215;BME280;6170;42.206;24.142;2023-02-14T11:04:51;99938.75;;;11.47;49.55
12215;BME280;6170;42.206;24.142;2023-02-14T11:07:19;99938.56;;;11.48;50.08
12215;BME280;6170;42.206;24.142;2023-02-14T11:09:47;99936.41;;;12.04;49.32
12215;BME280;6170;42.206;24.142;2023-02-14T11:12:33;99985.03;;;11.94;49.51
12215;BME280;6170;42.206;24.142;2023-02-14T11:15:19;99947.22;;;11.81;49.57
12215;BME280;6170;42.206;24.142;2023-02-14T11:17:48;99889.00;;;11.59;50.14
12215;BME280;6170;42.206;24.142;2023-02-14T11:20:27;99908.25;;;11.62;49.56
12215;BME280;6170;42.206;24.142;2023-02-14T11:22:55;99911.19;;;11.76;49.75
12215;BME280;6170;42.206;24.142;2023-02-14T11:25:24;99906.28;;;11.79;49.81
12215;BME280;6170;42.206;24.142;2023-02-14T11:27:56;99889.03;;;11.74;49.85
12215;BME280;6170;42.206;24.142;2023-02-14T11:30:26;99903.38;;;11.43;49.90
12215;BME280;6170;42.206;24.142;2023-02-14T11:32:54;99909.38;;;11.68;50.84
12215;BME280;6170;42.206;24.142;2023-02-14T11:35:23;99911.09;;;11.84;50.31
12215;BME280;6170;42.206;24.142;2023-02-14T11:37:55;99917.31;;;11.24;51.01
12215;BME280;6170;42.206;24.142;2023-02-14T11:40:25;99887.72;;;11.09;50.99
12215;BME280;6170;42.206;24.142;2023-02-14T11:42:53;99901.78;;;11.34;50.48
12215;BME280;6170;42.206;24.142;2023-02-14T11:45:28;99908.09;;;10.96;51.57
12215;BME280;6170;42.206;24.142;2023-02-14T11:48:15;99900.69;;;10.98;51.42
12215;BME280;6170;42.206;24.142;2023-02-14T11:50:53;99894.94;;;11.09;50.49
12215;BME280;6170;42.206;24.142;2023-02-14T11:53:23;99895.31;;;11.06;50.34
12215;BME280;6170;42.206;24.142;2023-02-14T11:55:51;99907.78;;;10.60;51.26
12215;BME280;6170;42.206;24.142;2023-02-14T11:58:29;99909.19;;;10.48;51.27
12215;BME280;6170;42.206;24.142;2023-02-14T12:00:58;99896.38;;;10.66;51.90
12215;BME280;6170;42.206;24.142;2023-02-14T12:03:27;99899.81;;;9.80;52.36
12215;BME280;6170;42.206;24.142;2023-02-14T12:05:56;99908.13;;;10.26;52.12
12215;BME280;6170;42.206;24.142;2023-02-14T12:08:28;99897.00;;;9.58;53.51
12215;BME280;6170;42.206;24.142;2023-02-14T12:11:03;99897.47;;;9.69;53.38
12215;BME280;6170;42.206;24.142;2023-02-14T12:13:31;99899.38;;;10.32;52.93
12215;BME280;6170;42.206;24.142;2023-02-14T12:15:59;99890.88;;;10.20;52.14
12215;BME280;6170;42.206;24.142;2023-02-14T12:21:36;99892.72;;;10.12;52.81
12215;BME280;6170;42.206;24.142;2023-02-14T12:24:12;99892.16;;;9.61;53.82
12215;BME280;6170;42.206;24.142;2023-02-14T12:26:44;99873.78;;;9.58;53.20
12215;BME280;6170;42.206;24.142;2023-02-14T12:29:18;99894.78;;;9.93;53.62
12215;BME280;6170;42.206;24.142;2023-02-14T12:31:48;99903.50;;;9.96;52.79
12215;BME280;6170;42.206;24.142;2023-02-14T12:34:16;99903.34;;;9.57;53.84
12215;BME280;6170;42.206;24.142;2023-02-14T12:37:11;99915.91;;;9.40;53.79
12215;BME280;6170;42.206;24.142;2023-02-14T12:39:47;99906.06;;;9.24;54.43
12215;BME280;6170;42.206;24.142;2023-02-14T12:42:27;99950.19;;;9.61;54.12
12215;BME280;6170;42.206;24.142;2023-02-14T12:45:05;99904.88;;;9.19;53.89
12215;BME280;6170;42.206;24.142;2023-02-14T12:47:43;99898.34;;;9.21;54.35
12215;BME280;6170;42.206;24.142;2023-02-14T12:50:21;99891.50;;;8.36;54.75
12215;BME280;6170;42.206;24.142;2023-02-14T12:53:07;99890.41;;;8.63;55.10
12215;BME280;6170;42.206;24.142;2023-02-14T12:55:51;99902.09;;;8.62;55.05
12215;BME280;6170;42.206;24.142;2023-02-14T12:58:30;99896.69;;;8.46;55.13
12215;BME280;6170;42.206;24.142;2023-02-14T13:01:20;99861.19;;;8.28;54.76
12215;BME280;6170;42.206;24.142;2023-02-14T13:06:47;99890.06;;;8.24;55.34
12215;BME280;6170;42.206;24.142;2023-02-14T13:09:27;99899.53;;;8.36;55.40
12215;BME280;6170;42.206;24.142;2023-02-14T13:12:04;99905.66;;;8.37;55.47
12215;BME280;6170;42.206;24.142;2023-02-14T13:14:44;99887.50;;;8.14;55.50
12215;BME280;6170;42.206;24.142;2023-02-14T13:17:22;99889.22;;;7.90;55.92
12215;BME280;6170;42.206;24.142;2023-02-14T13:19:58;99894.31;;;8.01;55.85
12215;BME280;6170;42.206;24.142;2023-02-14T13:22:29;99884.19;;;8.12;55.13
12215;BME280;6170;42.206;24.142;2023-02-14T13:25:02;99893.50;;;8.08;55.37
12215;BME280;6170;42.206;24.142;2023-02-14T13:27:31;99884.34;;;8.11;55.36
12215;BME280;6170;42.206;24.142;2023-02-14T13:30:02;99870.59;;;7.98;55.70